Skip Navigation Links Skip Navigation Links

Current Weather

Chicago O'Hare Intl, Chicago

For information only: do not use for flight planning or navigation.
Latest weather
Observation time Monday, June 21, 2021 8:51 PM CDT
Local time Monday, June 21, 2021 8:59 PM CDT
Flight conditions Visual Meteorological Conditions
Winds
Wind direction North-Northwest (340°)
Wind speed 8 mph
Wind gusting to 20 mph
Visibility 10 mi.
Sky condition
Ceiling 25,000 ft. broken clouds
Cloud layer few clouds 5,000 ft.
Cloud layer scattered clouds 7,500 ft.
Cloud layer broken clouds 25,000 ft.
Temperature 63°F
Dewpoint 40°F
Altimeter 29.89 in.Hg
Derived measurements
Relative humidity 43%
Density altitude 1087 ft.
Sea-level pressure 29.88 in.Hg
Remarks
Automated weather observing station with precipitation discriminator.
METAR KORD 220151Z 34007G17KT 10SM FEW050 SCT075 BKN250 17/04 A2989 RMK AO2 SLP118 T01720044

Settings

Location code

InnerDrive.Weather 4.0.6770.0 Release CLR 4.0.30319.42000
Copyright ©2018 Inner Drive Technology. All rights reserved. Portions Copyright ©1986-2018 David Braverman.

Find weather

Site navigation


Skip Navigation Links

Place info

Page info

PayPal - The safer, easier way to pay online!

Return home.

Copyright ©2021 Inner Drive Technology. Purveyors of fine, hand-crafted computer software. Page printed 2021-06-22T01:59:00 UTC.